createdAt,value
2022-08-05T00:00:16.020Z,38.84
2022-08-05T00:02:51.033Z,38.78
2022-08-05T00:06:01.767Z,38.90
2022-08-05T00:08:30.861Z,39.31
2022-08-05T00:11:00.747Z,39.55
2022-08-05T00:13:38.922Z,39.44
2022-08-05T00:16:12.936Z,39.48
2022-08-05T00:18:44.148Z,39.48
2022-08-05T00:21:12.230Z,40.07
2022-08-05T00:23:45.658Z,40.24
2022-08-05T00:26:16.324Z,39.97
2022-08-05T00:28:45.706Z,39.94
2022-08-05T00:31:13.442Z,40.01
2022-08-05T00:34:55.131Z,40.28
2022-08-05T00:37:09.721Z,40.43
2022-08-05T00:39:14.240Z,40.56
2022-08-05T00:41:51.449Z,40.36
2022-08-05T00:44:21.821Z,40.48
2022-08-05T00:46:54.252Z,40.49
2022-08-05T00:49:32.549Z,40.53
2022-08-05T00:52:00.303Z,40.60
2022-08-05T00:54:28.173Z,41.00
2022-08-05T00:56:57.446Z,41.02
2022-08-05T00:59:24.215Z,40.81
2022-08-05T01:01:51.152Z,41.35
2022-08-05T01:04:20.267Z,41.34
2022-08-05T01:06:53.752Z,41.28
2022-08-05T01:09:22.719Z,41.00
2022-08-05T01:11:54.017Z,41.21
2022-08-05T01:14:52.256Z,41.23
2022-08-05T01:17:30.281Z,41.39
2022-08-05T01:20:20.596Z,41.26
2022-08-05T01:22:57.856Z,41.58
2022-08-05T01:25:56.315Z,41.73
2022-08-05T01:28:33.475Z,41.75
2022-08-05T01:31:27.872Z,41.69
2022-08-05T01:34:03.439Z,42.00
2022-08-05T01:36:42.198Z,41.81
2022-08-05T01:39:16.141Z,42.26
2022-08-05T01:42:05.622Z,42.10
2022-08-05T01:44:35.466Z,42.14
2022-08-05T01:47:05.196Z,42.27
2022-08-05T01:50:00.477Z,42.35
2022-08-05T01:52:23.623Z,42.46
2022-08-05T01:54:56.795Z,42.64
2022-08-05T01:58:10.809Z,43.04
2022-08-05T02:00:19.070Z,42.91
2022-08-05T02:02:58.311Z,42.75
2022-08-05T02:05:30.601Z,43.25
2022-08-05T02:08:01.992Z,43.27
2022-08-05T02:10:34.947Z,43.08
2022-08-05T02:13:54.064Z,43.10
2022-08-05T02:16:25.720Z,43.76
2022-08-05T02:19:14.257Z,43.64
2022-08-05T02:21:49.276Z,43.80
2022-08-05T02:24:19.634Z,43.72
2022-08-05T02:26:55.123Z,44.02
2022-08-05T02:29:59.216Z,43.94
2022-08-05T02:32:19.942Z,43.83
2022-08-05T02:34:54.830Z,44.04
2022-08-05T02:37:23.698Z,43.91
2022-08-05T02:39:53.232Z,43.78
2022-08-05T02:42:25.931Z,43.85
2022-08-05T02:44:57.398Z,43.96
2022-08-05T02:47:26.023Z,44.10
2022-08-05T02:50:15.036Z,44.38
2022-08-05T02:52:46.449Z,44.19
2022-08-05T02:55:14.569Z,44.66
2022-08-05T02:58:20.175Z,44.37
2022-08-05T03:00:35.405Z,44.70
2022-08-05T03:03:10.163Z,45.13
2022-08-05T03:06:54.540Z,44.83
2022-08-05T03:08:30.020Z,44.98
2022-08-05T03:11:50.058Z,44.91
2022-08-05T03:13:52.238Z,45.03
2022-08-05T03:16:29.723Z,45.28
2022-08-05T03:18:58.426Z,45.21
2022-08-05T03:21:28.727Z,45.17
2022-08-05T03:23:57.158Z,45.22
2022-08-05T03:26:31.322Z,45.74
2022-08-05T03:28:59.974Z,45.40
2022-08-05T03:31:57.262Z,45.56
2022-08-05T03:34:14.685Z,45.25
2022-08-05T03:36:41.488Z,45.48
2022-08-05T03:39:12.983Z,45.02
2022-08-05T03:41:47.320Z,45.57
2022-08-05T03:44:19.900Z,45.65
2022-08-05T03:46:47.664Z,45.34
2022-08-05T03:49:15.713Z,45.31
2022-08-05T03:52:49.385Z,45.51
2022-08-05T03:55:52.829Z,46.17
2022-08-05T03:57:51.381Z,46.25
2022-08-05T04:00:26.088Z,46.36
2022-08-05T04:02:58.451Z,46.33
2022-08-05T04:05:33.857Z,46.10
2022-08-05T04:08:29.695Z,46.20
2022-08-05T04:10:56.596Z,46.92
2022-08-05T04:13:25.426Z,46.30
2022-08-05T04:16:04.191Z,47.17
2022-08-05T04:18:34.534Z,47.10
2022-08-05T04:21:02.403Z,47.02
2022-08-05T04:24:05.452Z,46.80
2022-08-05T04:26:19.327Z,47.16
2022-08-05T04:28:47.114Z,47.01
2022-08-05T04:31:17.899Z,46.85
2022-08-05T04:34:18.873Z,46.63
2022-08-05T04:36:45.712Z,46.59
2022-08-05T04:39:13.749Z,47.15
2022-08-05T04:41:41.180Z,47.12
2022-08-05T04:44:08.881Z,47.11
2022-08-05T04:46:36.896Z,47.03
2022-08-05T04:49:03.809Z,47.27
2022-08-05T04:51:31.280Z,47.23
2022-08-05T04:53:58.259Z,47.07
2022-08-05T04:56:34.628Z,47.13
2022-08-05T04:59:17.452Z,47.21
2022-08-05T05:02:35.401Z,47.49
2022-08-05T05:04:44.031Z,47.01
2022-08-05T05:07:23.899Z,47.61
2022-08-05T05:09:56.340Z,48.33
2022-08-05T05:12:24.496Z,47.37
2022-08-05T05:14:54.310Z,47.55
2022-08-05T05:17:24.332Z,48.39
2022-08-05T05:19:56.618Z,48.26
2022-08-05T05:22:26.050Z,48.38
2022-08-05T05:24:57.510Z,47.79
2022-08-05T05:27:41.323Z,48.29
2022-08-05T05:30:15.760Z,48.38
2022-08-05T05:32:56.678Z,47.99
2022-08-05T05:35:24.483Z,47.86
2022-08-05T05:38:00.322Z,47.47
2022-08-05T05:40:31.439Z,47.43
2022-08-05T05:42:59.877Z,47.79
2022-08-05T05:45:29.664Z,47.23
2022-08-05T05:48:06.350Z,47.23
2022-08-05T05:50:42.568Z,47.32
2022-08-05T05:53:21.235Z,47.23
2022-08-05T05:55:52.061Z,47.36
2022-08-05T05:58:31.404Z,47.37
2022-08-05T06:01:02.210Z,47.18
2022-08-05T06:03:53.605Z,47.21
2022-08-05T06:06:28.055Z,46.87
2022-08-05T06:09:00.488Z,46.75
2022-08-05T06:11:29.079Z,46.78
2022-08-05T06:13:57.124Z,46.86
2022-08-05T06:16:30.167Z,46.68
2022-08-05T06:19:05.661Z,46.61
2022-08-05T06:21:36.820Z,46.36
2022-08-05T06:24:12.057Z,46.66
2022-08-05T06:26:51.725Z,46.50
2022-08-05T06:29:42.932Z,46.57
2022-08-05T06:32:21.388Z,46.47
2022-08-05T06:34:56.379Z,46.35
2022-08-05T06:37:56.163Z,46.13
2022-08-05T06:40:13.039Z,46.25
2022-08-05T06:42:41.719Z,46.37
2022-08-05T06:45:09.666Z,46.38
2022-08-05T06:48:44.119Z,46.57
2022-08-05T06:50:34.558Z,46.16
2022-08-05T06:53:03.515Z,45.79
2022-08-05T06:55:38.038Z,46.03
2022-08-05T06:58:20.391Z,45.61
2022-08-05T07:01:01.738Z,45.80
2022-08-05T07:03:32.671Z,45.61
2022-08-05T07:06:05.972Z,45.60
2022-08-05T07:08:47.164Z,45.85
2022-08-05T07:11:16.514Z,45.76
2022-08-05T07:14:07.679Z,45.71
2022-08-05T07:18:00.090Z,46.11
2022-08-05T07:22:27.733Z,45.69
2022-08-05T07:24:54.910Z,45.81
2022-08-05T07:27:23.347Z,45.67
2022-08-05T07:30:27.873Z,45.63
2022-08-05T07:32:45.505Z,45.70
2022-08-05T07:36:01.939Z,45.46
2022-08-05T07:38:07.063Z,45.88
2022-08-05T07:40:39.490Z,45.08
2022-08-05T07:43:20.156Z,45.11
2022-08-05T07:45:57.180Z,45.02
2022-08-05T07:49:00.801Z,44.64
2022-08-05T07:51:23.784Z,44.54
2022-08-05T07:54:03.088Z,44.82
2022-08-05T07:57:02.933Z,44.06
2022-08-05T07:59:16.845Z,43.97
2022-08-05T08:01:51.728Z,43.79
2022-08-05T08:04:37.513Z,43.88
2022-08-05T08:07:07.398Z,43.70
2022-08-05T08:09:35.690Z,44.27
2022-08-05T08:12:12.473Z,43.01
2022-08-05T08:14:47.271Z,42.18
2022-08-05T08:17:16.220Z,42.01
2022-08-05T08:20:21.995Z,41.70
2022-08-05T08:22:32.433Z,41.33
2022-08-05T08:25:02.746Z,41.50
2022-08-05T08:27:35.743Z,40.30
2022-08-05T08:30:29.382Z,38.80
2022-08-05T08:33:02.564Z,38.51
2022-08-05T08:35:40.854Z,37.86
2022-08-05T08:38:11.821Z,37.74
2022-08-05T08:40:50.467Z,38.14
2022-08-05T08:45:21.420Z,38.04
2022-08-05T08:46:10.047Z,36.71
2022-08-05T08:49:07.810Z,36.54
2022-08-05T08:52:04.306Z,35.29
2022-08-05T08:54:21.302Z,34.93
2022-08-05T08:56:56.582Z,34.96
2022-08-05T08:59:27.546Z,34.89
2022-08-05T09:01:57.326Z,35.12
2022-08-05T09:04:30.292Z,35.14
2022-08-05T09:06:58.806Z,35.05
2022-08-05T09:09:32.517Z,35.17
2022-08-05T09:12:19.948Z,34.80
2022-08-05T09:14:56.457Z,34.32
2022-08-05T09:17:40.411Z,33.63
2022-08-05T09:20:10.873Z,34.04
2022-08-05T09:23:05.102Z,34.92
2022-08-05T09:25:59.869Z,33.90
2022-08-05T09:28:31.895Z,33.45
2022-08-05T09:31:44.008Z,33.18
2022-08-05T09:34:07.806Z,32.49
2022-08-05T09:36:55.209Z,32.95
2022-08-05T09:39:39.530Z,32.83
2022-08-05T09:42:23.210Z,32.74
2022-08-05T09:44:56.195Z,33.08
2022-08-05T09:47:48.353Z,32.49
2022-08-05T09:50:38.122Z,31.91
2022-08-05T09:53:08.833Z,31.65
2022-08-05T09:55:56.198Z,31.52
2022-08-05T09:58:29.246Z,31.29
2022-08-05T10:01:15.096Z,31.07
2022-08-05T10:04:00.717Z,30.62
2022-08-05T10:06:28.504Z,30.13
2022-08-05T10:08:56.103Z,30.73
2022-08-05T10:11:23.623Z,30.40
2022-08-05T10:13:54.560Z,30.54
2022-08-05T10:16:32.258Z,29.53
2022-08-05T10:19:08.514Z,29.22
2022-08-05T10:21:40.113Z,28.33
2022-08-05T10:24:13.441Z,29.01
2022-08-05T10:26:51.910Z,28.30
2022-08-05T10:29:24.213Z,28.72
2022-08-05T10:32:52.054Z,28.61
2022-08-05T10:35:01.061Z,28.80
2022-08-05T10:37:37.502Z,29.28
2022-08-05T10:40:34.228Z,27.69
2022-08-05T10:43:36.437Z,27.99
2022-08-05T10:46:08.820Z,27.59
2022-08-05T10:48:52.612Z,28.26
2022-08-05T10:51:29.274Z,28.00
2022-08-05T10:54:05.810Z,27.68
2022-08-05T10:56:57.816Z,27.08
2022-08-05T11:00:02.060Z,27.88
2022-08-05T11:02:38.247Z,27.79
2022-08-05T11:05:10.715Z,27.68
2022-08-05T11:08:02.875Z,27.62
2022-08-05T11:10:33.786Z,27.52
2022-08-05T11:13:01.433Z,27.91
2022-08-05T11:16:01.217Z,27.71
2022-08-05T11:18:34.112Z,27.21
2022-08-05T11:21:11.328Z,26.94
2022-08-05T11:24:02.765Z,26.34
2022-08-05T11:26:32.467Z,26.63
2022-08-05T11:29:12.123Z,26.35
2022-08-05T11:31:56.338Z,26.04
2022-08-05T11:34:51.575Z,25.99
2022-08-05T11:38:30.972Z,26.16
2022-08-05T11:41:03.400Z,25.88
2022-08-05T11:44:07.551Z,25.34
2022-08-05T11:46:58.698Z,25.71
2022-08-05T11:49:36.154Z,25.76
2022-08-05T11:52:08.764Z,25.81
2022-08-05T11:54:41.704Z,26.08
2022-08-05T11:57:24.939Z,25.86
2022-08-05T11:59:54.341Z,25.54
2022-08-05T12:02:32.979Z,25.98
2022-08-05T12:05:07.041Z,25.80
2022-08-05T12:08:03.782Z,25.41
2022-08-05T12:10:38.629Z,25.29
2022-08-05T12:13:27.725Z,25.30
2022-08-05T12:16:15.724Z,24.81
2022-08-05T12:18:49.014Z,24.94
2022-08-05T12:21:24.157Z,23.74
2022-08-05T12:24:04.472Z,23.76
2022-08-05T12:26:39.818Z,24.18
2022-08-05T12:29:22.909Z,24.60
2022-08-05T12:31:56.520Z,23.77
2022-08-05T12:34:30.278Z,23.83
2022-08-05T12:37:03.397Z,23.87
2022-08-05T12:39:34.651Z,24.12
2022-08-05T12:42:10.129Z,23.37
2022-08-05T12:44:43.115Z,23.10
2022-08-05T12:47:12.617Z,23.54
2022-08-05T12:50:01.969Z,24.02
2022-08-05T12:52:35.384Z,23.48
2022-08-05T12:55:23.769Z,23.35
2022-08-05T12:58:38.735Z,23.60
2022-08-05T13:02:00.763Z,23.28
2022-08-05T13:03:42.431Z,23.17
2022-08-05T13:06:16.508Z,23.03
2022-08-05T13:08:51.847Z,22.87
2022-08-05T13:12:01.128Z,22.92
2022-08-05T13:14:25.071Z,23.16
2022-08-05T13:17:16.553Z,23.28
2022-08-05T13:20:09.036Z,23.32
2022-08-05T13:22:41.315Z,23.69
2022-08-05T13:25:18.816Z,23.24
2022-08-05T13:27:51.420Z,22.94
2022-08-05T13:30:34.869Z,22.81
2022-08-05T13:33:03.972Z,23.33
2022-08-05T13:35:43.326Z,24.08
2022-08-05T13:38:28.388Z,22.95
2022-08-05T13:41:00.206Z,23.18
2022-08-05T13:43:45.410Z,23.06
2022-08-05T13:46:16.317Z,23.61
2022-08-05T13:48:57.366Z,23.68
2022-08-05T13:51:36.686Z,23.54
2022-08-05T13:54:13.452Z,23.29
2022-08-05T13:56:45.237Z,23.23
2022-08-05T13:59:27.284Z,23.56
2022-08-05T14:01:58.210Z,23.21
2022-08-05T14:04:49.409Z,22.97
2022-08-05T14:07:56.510Z,22.39
2022-08-05T14:10:08.567Z,22.88
2022-08-05T14:12:35.747Z,22.58
2022-08-05T14:15:22.069Z,22.77
2022-08-05T14:17:49.803Z,22.63
2022-08-05T14:20:17.659Z,22.69
2022-08-05T14:22:50.222Z,22.92
2022-08-05T14:25:22.088Z,22.46
2022-08-05T14:27:51.169Z,22.84
2022-08-05T14:30:20.414Z,22.43
2022-08-05T14:32:49.107Z,22.40
2022-08-05T14:35:20.881Z,23.00
2022-08-05T14:37:55.041Z,22.79
2022-08-05T14:40:24.289Z,22.17
2022-08-05T14:42:52.015Z,22.25
2022-08-05T14:45:19.148Z,22.29
2022-08-05T14:48:04.070Z,22.31
2022-08-05T14:50:39.797Z,21.97
2022-08-05T14:53:07.713Z,22.04
2022-08-05T14:55:39.097Z,21.72
2022-08-05T14:58:10.879Z,21.74
2022-08-05T15:00:57.914Z,22.01
2022-08-05T15:03:33.383Z,21.76
2022-08-05T15:06:14.775Z,22.32
2022-08-05T15:08:59.233Z,21.89
2022-08-05T15:11:50.920Z,22.01
2022-08-05T15:14:33.952Z,22.05
2022-08-05T15:17:05.021Z,22.14
2022-08-05T15:19:37.125Z,22.14
2022-08-05T15:22:06.116Z,22.06
2022-08-05T15:24:32.849Z,22.05
2022-08-05T15:26:59.701Z,22.41
2022-08-05T15:29:30.102Z,22.42
2022-08-05T15:32:02.302Z,22.11
2022-08-05T15:34:33.625Z,22.36
2022-08-05T15:37:06.909Z,22.30
2022-08-05T15:41:01.189Z,22.42
2022-08-05T15:42:57.520Z,22.55
2022-08-05T15:45:16.971Z,22.61
2022-08-05T15:47:46.798Z,22.50
2022-08-05T15:50:15.408Z,22.76
2022-08-05T15:52:53.410Z,22.50
2022-08-05T15:55:24.554Z,22.69
2022-08-05T15:57:52.453Z,22.77
2022-08-05T16:00:26.502Z,22.91
2022-08-05T16:03:07.036Z,22.92
2022-08-05T16:05:34.137Z,23.31
2022-08-05T16:08:00.963Z,22.67
2022-08-05T16:10:27.942Z,22.17
2022-08-05T16:12:56.352Z,22.37
2022-08-05T16:15:24.050Z,22.56
2022-08-05T16:17:59.409Z,22.68
2022-08-05T16:20:27.814Z,22.62
2022-08-05T16:22:55.239Z,22.76
2022-08-05T16:25:33.788Z,22.65
2022-08-05T16:28:06.517Z,22.79
2022-08-05T16:30:37.931Z,22.56
2022-08-05T16:33:05.483Z,23.06
2022-08-05T16:35:34.643Z,22.81
2022-08-05T16:38:24.700Z,23.19
2022-08-05T16:40:59.610Z,22.27
2022-08-05T16:43:31.948Z,22.60
2022-08-05T16:46:05.233Z,22.83
2022-08-05T16:48:38.517Z,22.65
2022-08-05T16:51:09.098Z,22.39
2022-08-05T16:54:06.230Z,22.41
2022-08-05T16:56:31.203Z,22.43
2022-08-05T16:58:58.943Z,22.77
2022-08-05T17:01:31.670Z,22.68
2022-08-05T17:04:15.300Z,22.73
2022-08-05T17:06:42.141Z,23.26
2022-08-05T17:09:09.597Z,23.52
2022-08-05T17:11:48.636Z,23.15
2022-08-05T17:14:34.258Z,22.99
2022-08-05T17:17:02.690Z,23.48
2022-08-05T17:19:29.631Z,23.67
2022-08-05T17:21:57.559Z,23.97
2022-08-05T17:24:35.162Z,23.46
2022-08-05T17:27:05.804Z,23.72
2022-08-05T17:29:33.324Z,23.44
2022-08-05T17:32:11.171Z,23.87
2022-08-05T17:34:40.589Z,24.09
2022-08-05T17:37:37.699Z,23.88
2022-08-05T17:39:57.529Z,23.79
2022-08-05T17:42:32.156Z,23.93
2022-08-05T17:45:18.091Z,23.79
2022-08-05T17:47:53.417Z,24.23
2022-08-05T17:50:28.533Z,24.28
2022-08-05T17:52:59.517Z,24.15
2022-08-05T17:55:38.332Z,24.30
2022-08-05T17:58:09.357Z,24.01
2022-08-05T18:00:37.009Z,24.66
2022-08-05T18:03:07.926Z,24.98
2022-08-05T18:05:38.049Z,24.98
2022-08-05T18:08:05.391Z,25.07
2022-08-05T18:10:34.662Z,25.23
2022-08-05T18:13:12.178Z,24.95
2022-08-05T18:15:39.512Z,24.97
2022-08-05T18:18:11.333Z,25.21
2022-08-05T18:20:39.013Z,25.00
2022-08-05T18:23:09.295Z,25.39
2022-08-05T18:25:39.502Z,25.18
2022-08-05T18:28:10.936Z,25.70
2022-08-05T18:30:40.263Z,25.26
2022-08-05T18:33:08.654Z,25.37
2022-08-05T18:35:59.874Z,25.35
2022-08-05T18:40:34.496Z,25.35
2022-08-05T18:42:52.131Z,25.27
2022-08-05T18:45:19.321Z,25.60
2022-08-05T18:47:51.507Z,25.57
2022-08-05T18:50:42.345Z,25.51
2022-08-05T18:53:20.615Z,26.78
2022-08-05T18:55:51.427Z,26.85
2022-08-05T18:58:18.821Z,27.06
2022-08-05T19:00:54.640Z,27.47
2022-08-05T19:03:55.154Z,27.38
2022-08-05T19:06:18.813Z,27.03
2022-08-05T19:08:49.384Z,27.34
2022-08-05T19:11:20.421Z,27.19
2022-08-05T19:14:00.912Z,27.81
2022-08-05T19:16:36.868Z,27.72
2022-08-05T19:19:14.598Z,27.06
2022-08-05T19:21:41.369Z,27.39
2022-08-05T19:24:12.520Z,27.42
2022-08-05T19:26:54.390Z,27.13
2022-08-05T19:29:23.079Z,27.72
2022-08-05T19:31:51.365Z,28.16
2022-08-05T19:34:18.663Z,27.79
2022-08-05T19:36:45.860Z,28.46
2022-08-05T19:39:17.347Z,28.58
2022-08-05T19:42:05.883Z,28.60
2022-08-05T19:44:31.176Z,28.86
2022-08-05T19:46:57.982Z,28.72
2022-08-05T19:49:24.813Z,28.61
2022-08-05T19:52:05.821Z,28.54
2022-08-05T19:54:38.473Z,28.75
2022-08-05T19:57:09.152Z,28.95
2022-08-05T19:59:55.369Z,28.82
2022-08-05T20:02:26.946Z,27.97
2022-08-05T20:04:58.885Z,28.06
2022-08-05T20:07:48.626Z,28.09
2022-08-05T20:10:17.479Z,28.48
2022-08-05T20:12:49.223Z,28.52
2022-08-05T20:15:23.073Z,28.54
2022-08-05T20:18:10.320Z,27.72
2022-08-05T20:20:55.214Z,28.07
2022-08-05T20:23:24.195Z,28.06
2022-08-05T20:26:08.915Z,28.61
2022-08-05T20:28:48.926Z,28.68
2022-08-05T20:31:16.855Z,28.64
2022-08-05T20:33:44.980Z,28.71
2022-08-05T20:36:14.315Z,28.37
2022-08-05T20:38:53.770Z,28.55
2022-08-05T20:41:27.393Z,28.12
2022-08-05T20:44:18.566Z,27.89
2022-08-05T20:46:57.492Z,28.02
2022-08-05T20:49:26.084Z,28.21
2022-08-05T20:51:54.737Z,28.50
2022-08-05T20:54:23.070Z,28.68
2022-08-05T20:56:53.012Z,28.89
2022-08-05T20:59:27.171Z,29.32
2022-08-05T21:02:07.711Z,29.13
2022-08-05T21:04:36.279Z,29.18
2022-08-05T21:07:04.549Z,29.89
2022-08-05T21:09:31.521Z,29.85
2022-08-05T21:12:10.423Z,30.12
2022-08-05T21:14:39.534Z,29.93
2022-08-05T21:17:06.680Z,30.54
2022-08-05T21:19:46.954Z,30.28
2022-08-05T21:22:17.821Z,30.50
2022-08-05T21:24:51.442Z,30.75
2022-08-05T21:27:20.549Z,30.71
2022-08-05T21:29:52.629Z,30.53
2022-08-05T21:32:21.173Z,31.08
2022-08-05T21:34:55.999Z,31.49
2022-08-05T21:37:41.163Z,31.69
2022-08-05T21:40:13.187Z,31.26
2022-08-05T21:42:44.553Z,30.55
2022-08-05T21:45:12.384Z,30.75
2022-08-05T21:47:56.774Z,31.68
2022-08-05T21:50:26.568Z,31.58
2022-08-05T21:52:58.904Z,32.23
2022-08-05T21:56:01.050Z,32.29
2022-08-05T21:58:19.274Z,32.15
2022-08-05T22:00:51.102Z,32.42
2022-08-05T22:03:18.408Z,32.56
2022-08-05T22:06:06.483Z,32.87
2022-08-05T22:08:35.236Z,32.51
2022-08-05T22:11:02.037Z,33.16
2022-08-05T22:14:19.654Z,32.69
2022-08-05T22:16:41.595Z,32.38
2022-08-05T22:19:14.994Z,32.21
2022-08-05T22:21:55.039Z,32.19
2022-08-05T22:24:52.452Z,32.64
2022-08-05T22:28:09.781Z,32.96
2022-08-05T22:30:25.770Z,32.73
2022-08-05T22:33:02.265Z,32.88
2022-08-05T22:35:31.108Z,33.23
2022-08-05T22:38:15.285Z,33.17
2022-08-05T22:40:42.164Z,33.74
2022-08-05T22:43:37.155Z,33.85
2022-08-05T22:46:13.444Z,33.87
2022-08-05T22:48:47.769Z,34.19
2022-08-05T22:51:15.976Z,34.49
2022-08-05T22:53:51.187Z,34.57
2022-08-05T22:56:30.223Z,34.30
2022-08-05T22:58:59.982Z,34.99
2022-08-05T23:01:50.922Z,34.79
2022-08-05T23:04:17.914Z,35.19
2022-08-05T23:06:44.642Z,34.86
2022-08-05T23:09:26.951Z,35.53
2022-08-05T23:11:59.016Z,35.27
2022-08-05T23:14:32.171Z,35.35
2022-08-05T23:17:24.498Z,35.28
2022-08-05T23:20:01.092Z,35.36
2022-08-05T23:22:29.683Z,35.71
2022-08-05T23:24:57.739Z,35.94
2022-08-05T23:27:31.339Z,35.92
2022-08-05T23:30:12.425Z,35.74
2022-08-05T23:32:45.127Z,35.79
2022-08-05T23:35:12.416Z,36.08
2022-08-05T23:37:39.977Z,36.32
2022-08-05T23:40:09.624Z,36.13
2022-08-05T23:42:38.831Z,36.38
2022-08-05T23:45:14.460Z,36.07
2022-08-05T23:47:48.260Z,36.24
2022-08-05T23:50:20.298Z,36.83
2022-08-05T23:52:50.113Z,36.94
2022-08-05T23:55:19.569Z,36.74
2022-08-05T23:57:49.044Z,37.07
